Raleigh, NC (27614)

7:48 PM EDT on March 28, 2017 (GMT -0400)
North Raleigh (Falls Lake) | | Change Station

Elev 300 ft 35.93 °N, 78.61 °W | Updated 11 seconds ago

Mostly Cloudy
Mostly Cloudy
71.0 °F
Feels Like 76 °F
N
0.0
Wind Variable Wind from SE
Gusts 0.0 mph

Today
High -- | Low -- °F
--% Chance of Precip.
Yesterday
High -- | Low -- °F
Precip. -- in
Pressure 29.88 in
Visibility 10.0 miles
Clouds Few 3500 ft
Scattered Clouds 7500 ft
Mostly Cloudy 9000 ft
Heat Index 76 °F
Dew Point 56 °F
Humidity 59%
Rainfall 0.04 in
Snow Depth Not available.
7:06 AM 7:33 PM
New Moon, 1% visible
METAR KRDU 282251Z 33003KT 10SM FEW035 SCT075 BKN090 23/12 A2988 RMK AO2 SLP116 TCU DSNT E-S T02330117
Pressure 29.88 in
Visibility 10.0 miles
Clouds Few 3500 ft
Scattered Clouds 7500 ft
Mostly Cloudy 9000 ft
Heat Index 76 °F
Dew Point 56 °F
Humidity 59%
Rainfall 0.04 in
Snow Depth Not available.
7:06 AM 7:33 PM
New Moon, 1% visible
METAR KRDU 282251Z 33003KT 10SM FEW035 SCT075 BKN090 23/12 A2988 RMK AO2 SLP116 TCU DSNT E-S T02330117

Get Severe Weather Alerts

Thanks for signing up!

Be on the lookout for a verification email in your inbox.

You'll start receiving the daily forecast at 8 AM.

×

10-Day Weather Forecast

Almanac

Astronomy

Mar. 28, 2017 Rise Set
Actual Time
Civil Twilight
Nautical Twilight
Astronomical Twilight
Moon
Length of Visible Light
Length of Day
Tomorrow will be .
, % of the Moon is Illuminated

Today's Extremes

State Highs State Lows

Community

WunderPhotos

Upload Photos

1,962,540 photos uploaded!

WunderBlog® & News

Nearby

Air Quality

  Air Quality AQ Index Pollutant
Not available.

Snow Depth

Station Depth Elevation

Earthquake Activity

City Distance Mag. Time & Date
Minimum magnitude displayed is 2.5.

Earthquake Activity

City Distance Mag. Time & Date
Minimum magnitude displayed is 2.5.

Coastal Water Temperatures

Place Temperature

Stations

Nearby Weather Stations

Station Location Temp. Windchill Dew Point Humidity Wind Precip. Elev Updated Type
                   

Watches & Warnings

There are currently no watches in effect.